sensor_id;sensor_type;location;lat;lon;timestamp;P1;durP1;ratioP1;P2;durP2;ratioP2
60975;SDS011;46849;48.154;17.042;2022-10-26T00:03:04;2.20;;;0.50;;
60975;SDS011;46849;48.154;17.042;2022-10-26T00:05:49;4.97;;;0.70;;
60975;SDS011;46849;48.154;17.042;2022-10-26T00:08:34;2.58;;;0.52;;
60975;SDS011;46849;48.154;17.042;2022-10-26T00:11:18;2.00;;;0.70;;
60975;SDS011;46849;48.154;17.042;2022-10-26T00:14:03;3.13;;;0.70;;
60975;SDS011;46849;48.154;17.042;2022-10-26T00:16:48;2.55;;;0.90;;
60975;SDS011;46849;48.154;17.042;2022-10-26T00:19:33;1.63;;;0.52;;
60975;SDS011;46849;48.154;17.042;2022-10-26T00:22:18;2.33;;;0.65;;
60975;SDS011;46849;48.154;17.042;2022-10-26T00:25:03;1.27;;;0.70;;
60975;SDS011;46849;48.154;17.042;2022-10-26T00:27:48;2.42;;;0.85;;
60975;SDS011;46849;48.154;17.042;2022-10-26T00:30:33;1.80;;;0.70;;
60975;SDS011;46849;48.154;17.042;2022-10-26T00:33:18;2.70;;;0.80;;
60975;SDS011;46849;48.154;17.042;2022-10-26T00:36:02;2.42;;;0.90;;
60975;SDS011;46849;48.154;17.042;2022-10-26T00:38:52;1.92;;;0.65;;
60975;SDS011;46849;48.154;17.042;2022-10-26T00:41:37;4.82;;;1.02;;
60975;SDS011;46849;48.154;17.042;2022-10-26T00:50:30;2.83;;;1.00;;
60975;SDS011;46849;48.154;17.042;2022-10-26T00:53:20;2.38;;;1.00;;
60975;SDS011;46849;48.154;17.042;2022-10-26T00:56:06;2.08;;;1.08;;
60975;SDS011;46849;48.154;17.042;2022-10-26T00:58:52;2.90;;;1.00;;
60975;SDS011;46849;48.154;17.042;2022-10-26T01:01:39;3.38;;;1.17;;
60975;SDS011;46849;48.154;17.042;2022-10-26T01:04:26;3.15;;;1.00;;
60975;SDS011;46849;48.154;17.042;2022-10-26T01:07:11;3.08;;;1.00;;
60975;SDS011;46849;48.154;17.042;2022-10-26T01:09:56;2.40;;;0.95;;
60975;SDS011;46849;48.154;17.042;2022-10-26T01:12:41;1.65;;;0.82;;
60975;SDS011;46849;48.154;17.042;2022-10-26T01:15:30;1.33;;;0.90;;
60975;SDS011;46849;48.154;17.042;2022-10-26T01:21:39;1.83;;;1.00;;
60975;SDS011;46849;48.154;17.042;2022-10-26T01:24:45;1.80;;;1.00;;
60975;SDS011;46849;48.154;17.042;2022-10-26T01:27:46;1.73;;;0.57;;
60975;SDS011;46849;48.154;17.042;2022-10-26T01:30:42;4.57;;;0.98;;
60975;SDS011;46849;48.154;17.042;2022-10-26T01:37:10;1.10;;;0.50;;
60975;SDS011;46849;48.154;17.042;2022-10-26T01:40:08;1.75;;;0.43;;
60975;SDS011;46849;48.154;17.042;2022-10-26T01:43:01;2.40;;;0.73;;
60975;SDS011;46849;48.154;17.042;2022-10-26T01:45:50;1.67;;;0.63;;
60975;SDS011;46849;48.154;17.042;2022-10-26T01:48:37;2.17;;;0.90;;
60975;SDS011;46849;48.154;17.042;2022-10-26T01:51:24;1.73;;;0.60;;
60975;SDS011;46849;48.154;17.042;2022-10-26T01:54:10;1.73;;;0.50;;
60975;SDS011;46849;48.154;17.042;2022-10-26T01:56:59;5.30;;;1.00;;
60975;SDS011;46849;48.154;17.042;2022-10-26T01:59:56;1.80;;;0.90;;
60975;SDS011;46849;48.154;17.042;2022-10-26T02:09:00;2.90;;;1.48;;
60975;SDS011;46849;48.154;17.042;2022-10-26T02:12:16;3.10;;;1.90;;
60975;SDS011;46849;48.154;17.042;2022-10-26T02:15:17;3.70;;;1.98;;
60975;SDS011;46849;48.154;17.042;2022-10-26T02:21:09;8.32;;;2.85;;
60975;SDS011;46849;48.154;17.042;2022-10-26T02:24:01;4.95;;;3.10;;
60975;SDS011;46849;48.154;17.042;2022-10-26T02:26:49;4.13;;;3.00;;
60975;SDS011;46849;48.154;17.042;2022-10-26T02:29:37;5.32;;;3.10;;
60975;SDS011;46849;48.154;17.042;2022-10-26T02:32:26;5.10;;;3.17;;
60975;SDS011;46849;48.154;17.042;2022-10-26T02:35:14;5.70;;;2.67;;
60975;SDS011;46849;48.154;17.042;2022-10-26T02:38:00;4.97;;;3.40;;
60975;SDS011;46849;48.154;17.042;2022-10-26T02:40:49;5.28;;;3.63;;
60975;SDS011;46849;48.154;17.042;2022-10-26T02:43:36;6.13;;;3.83;;
60975;SDS011;46849;48.154;17.042;2022-10-26T02:46:25;5.72;;;4.45;;
60975;SDS011;46849;48.154;17.042;2022-10-26T02:49:12;6.07;;;3.75;;
60975;SDS011;46849;48.154;17.042;2022-10-26T02:55:00;7.28;;;4.30;;
60975;SDS011;46849;48.154;17.042;2022-10-26T03:00:38;6.32;;;3.97;;
60975;SDS011;46849;48.154;17.042;2022-10-26T03:03:24;7.28;;;3.90;;
60975;SDS011;46849;48.154;17.042;2022-10-26T03:06:09;6.45;;;3.80;;
60975;SDS011;46849;48.154;17.042;2022-10-26T03:08:54;5.30;;;3.47;;
60975;SDS011;46849;48.154;17.042;2022-10-26T03:11:39;6.13;;;3.80;;
60975;SDS011;46849;48.154;17.042;2022-10-26T03:14:23;7.10;;;3.28;;
60975;SDS011;46849;48.154;17.042;2022-10-26T03:17:08;12.50;;;3.97;;
60975;SDS011;46849;48.154;17.042;2022-10-26T03:19:53;5.32;;;2.60;;
60975;SDS011;46849;48.154;17.042;2022-10-26T03:22:39;5.43;;;2.92;;
60975;SDS011;46849;48.154;17.042;2022-10-26T03:25:24;7.25;;;3.28;;
60975;SDS011;46849;48.154;17.042;2022-10-26T03:28:09;5.28;;;2.90;;
60975;SDS011;46849;48.154;17.042;2022-10-26T03:30:54;8.35;;;2.67;;
60975;SDS011;46849;48.154;17.042;2022-10-26T06:53:04;51.83;;;24.48;;
60975;SDS011;46849;48.154;17.042;2022-10-26T06:55:50;47.92;;;23.92;;
60975;SDS011;46849;48.154;17.042;2022-10-26T06:58:35;46.35;;;22.67;;
60975;SDS011;46849;48.154;17.042;2022-10-26T07:01:21;39.05;;;19.98;;
60975;SDS011;46849;48.154;17.042;2022-10-26T07:04:05;38.13;;;19.63;;
60975;SDS011;46849;48.154;17.042;2022-10-26T07:06:49;33.83;;;18.00;;
60975;SDS011;46849;48.154;17.042;2022-10-26T07:09:34;31.98;;;15.88;;
60975;SDS011;46849;48.154;17.042;2022-10-26T07:12:18;27.70;;;14.85;;
60975;SDS011;46849;48.154;17.042;2022-10-26T07:15:03;24.48;;;14.30;;
60975;SDS011;46849;48.154;17.042;2022-10-26T07:17:49;24.08;;;13.15;;
60975;SDS011;46849;48.154;17.042;2022-10-26T07:20:35;23.35;;;13.43;;
60975;SDS011;46849;48.154;17.042;2022-10-26T07:23:22;25.30;;;14.00;;
60975;SDS011;46849;48.154;17.042;2022-10-26T07:26:06;32.60;;;15.60;;
60975;SDS011;46849;48.154;17.042;2022-10-26T07:28:51;27.90;;;14.30;;
60975;SDS011;46849;48.154;17.042;2022-10-26T07:31:37;27.98;;;14.07;;
60975;SDS011;46849;48.154;17.042;2022-10-26T07:34:21;29.67;;;15.15;;
60975;SDS011;46849;48.154;17.042;2022-10-26T07:37:06;28.45;;;14.43;;
60975;SDS011;46849;48.154;17.042;2022-10-26T07:39:50;30.40;;;15.07;;
60975;SDS011;46849;48.154;17.042;2022-10-26T07:42:35;33.65;;;16.90;;
60975;SDS011;46849;48.154;17.042;2022-10-26T07:45:20;37.45;;;18.10;;
60975;SDS011;46849;48.154;17.042;2022-10-26T07:48:05;43.35;;;21.42;;
60975;SDS011;46849;48.154;17.042;2022-10-26T07:50:51;45.00;;;21.23;;
60975;SDS011;46849;48.154;17.042;2022-10-26T07:53:35;48.75;;;23.52;;
60975;SDS011;46849;48.154;17.042;2022-10-26T07:56:20;48.60;;;21.20;;
60975;SDS011;46849;48.154;17.042;2022-10-26T07:59:06;44.67;;;17.70;;
60975;SDS011;46849;48.154;17.042;2022-10-26T08:01:51;33.85;;;15.95;;
60975;SDS011;46849;48.154;17.042;2022-10-26T08:04:36;33.40;;;16.00;;
60975;SDS011;46849;48.154;17.042;2022-10-26T08:07:20;24.08;;;12.68;;
60975;SDS011;46849;48.154;17.042;2022-10-26T08:10:05;27.40;;;12.32;;
60975;SDS011;46849;48.154;17.042;2022-10-26T08:12:51;24.60;;;11.88;;
60975;SDS011;46849;48.154;17.042;2022-10-26T08:15:36;23.95;;;11.93;;
60975;SDS011;46849;48.154;17.042;2022-10-26T08:18:21;23.73;;;12.13;;
60975;SDS011;46849;48.154;17.042;2022-10-26T08:21:06;21.83;;;10.80;;
60975;SDS011;46849;48.154;17.042;2022-10-26T08:23:54;24.42;;;11.95;;
60975;SDS011;46849;48.154;17.042;2022-10-26T08:26:39;20.50;;;11.55;;
60975;SDS011;46849;48.154;17.042;2022-10-26T08:29:24;19.60;;;10.52;;
60975;SDS011;46849;48.154;17.042;2022-10-26T08:32:09;19.60;;;9.38;;
60975;SDS011;46849;48.154;17.042;2022-10-26T08:34:54;26.83;;;9.57;;
60975;SDS011;46849;48.154;17.042;2022-10-26T08:37:38;20.90;;;9.57;;
60975;SDS011;46849;48.154;17.042;2022-10-26T08:40:24;21.27;;;9.57;;
60975;SDS011;46849;48.154;17.042;2022-10-26T08:43:15;16.38;;;8.77;;
60975;SDS011;46849;48.154;17.042;2022-10-26T08:46:04;20.77;;;9.30;;
60975;SDS011;46849;48.154;17.042;2022-10-26T08:51:42;22.23;;;10.68;;
60975;SDS011;46849;48.154;17.042;2022-10-26T08:54:35;29.65;;;11.00;;
60975;SDS011;46849;48.154;17.042;2022-10-26T08:57:26;29.98;;;14.57;;
60975;SDS011;46849;48.154;17.042;2022-10-26T09:00:22;30.60;;;13.63;;
60975;SDS011;46849;48.154;17.042;2022-10-26T09:03:13;32.72;;;14.23;;
60975;SDS011;46849;48.154;17.042;2022-10-26T09:09:02;40.00;;;16.95;;
60975;SDS011;46849;48.154;17.042;2022-10-26T09:30:15;24.75;;;12.60;;
60975;SDS011;46849;48.154;17.042;2022-10-26T09:33:03;22.77;;;11.80;;
60975;SDS011;46849;48.154;17.042;2022-10-26T09:35:59;21.35;;;11.82;;
60975;SDS011;46849;48.154;17.042;2022-10-26T09:38:58;19.92;;;10.50;;
60975;SDS011;46849;48.154;17.042;2022-10-26T09:42:20;26.80;;;10.25;;
60975;SDS011;46849;48.154;17.042;2022-10-26T09:45:15;23.23;;;10.85;;
60975;SDS011;46849;48.154;17.042;2022-10-26T09:48:13;26.77;;;11.50;;
60975;SDS011;46849;48.154;17.042;2022-10-26T09:50:59;22.75;;;9.73;;
60975;SDS011;46849;48.154;17.042;2022-10-26T09:53:43;20.88;;;9.75;;
60975;SDS011;46849;48.154;17.042;2022-10-26T09:56:28;27.90;;;13.27;;
60975;SDS011;46849;48.154;17.042;2022-10-26T09:59:14;24.80;;;11.50;;
60975;SDS011;46849;48.154;17.042;2022-10-26T10:05:25;18.15;;;9.60;;
60975;SDS011;46849;48.154;17.042;2022-10-26T10:11:06;23.00;;;13.13;;
60975;SDS011;46849;48.154;17.042;2022-10-26T10:13:52;18.17;;;9.45;;
60975;SDS011;46849;48.154;17.042;2022-10-26T10:16:37;26.55;;;13.52;;
60975;SDS011;46849;48.154;17.042;2022-10-26T10:25:20;25.52;;;14.40;;
60975;SDS011;46849;48.154;17.042;2022-10-26T10:31:22;28.77;;;14.52;;
60975;SDS011;46849;48.154;17.042;2022-10-26T10:34:15;32.35;;;16.13;;
60975;SDS011;46849;48.154;17.042;2022-10-26T10:37:00;29.65;;;14.68;;
60975;SDS011;46849;48.154;17.042;2022-10-26T10:39:45;28.42;;;14.02;;
60975;SDS011;46849;48.154;17.042;2022-10-26T10:42:31;33.67;;;16.75;;
60975;SDS011;46849;48.154;17.042;2022-10-26T10:45:22;37.58;;;19.48;;
60975;SDS011;46849;48.154;17.042;2022-10-26T10:48:17;35.33;;;16.95;;
60975;SDS011;46849;48.154;17.042;2022-10-26T10:51:04;28.65;;;15.02;;
60975;SDS011;46849;48.154;17.042;2022-10-26T10:53:56;32.13;;;15.77;;
60975;SDS011;46849;48.154;17.042;2022-10-26T10:56:44;34.95;;;17.65;;
60975;SDS011;46849;48.154;17.042;2022-10-26T11:11:49;29.38;;;14.82;;
60975;SDS011;46849;48.154;17.042;2022-10-26T11:14:43;33.47;;;15.63;;
60975;SDS011;46849;48.154;17.042;2022-10-26T11:20:43;22.15;;;12.10;;
60975;SDS011;46849;48.154;17.042;2022-10-26T11:30:00;30.10;;;16.17;;
60975;SDS011;46849;48.154;17.042;2022-10-26T11:35:43;30.38;;;16.23;;
60975;SDS011;46849;48.154;17.042;2022-10-26T11:41:39;41.92;;;19.25;;
60975;SDS011;46849;48.154;17.042;2022-10-26T11:44:49;34.42;;;17.27;;
60975;SDS011;46849;48.154;17.042;2022-10-26T11:47:49;35.92;;;15.75;;
60975;SDS011;46849;48.154;17.042;2022-10-26T11:50:38;33.42;;;15.23;;
60975;SDS011;46849;48.154;17.042;2022-10-26T11:53:27;33.55;;;15.63;;
60975;SDS011;46849;48.154;17.042;2022-10-26T11:56:24;31.55;;;15.57;;
60975;SDS011;46849;48.154;17.042;2022-10-26T11:59:21;32.15;;;16.60;;
60975;SDS011;46849;48.154;17.042;2022-10-26T12:02:21;29.80;;;15.00;;
60975;SDS011;46849;48.154;17.042;2022-10-26T12:08:13;30.02;;;14.80;;
60975;SDS011;46849;48.154;17.042;2022-10-26T12:19:52;20.38;;;11.32;;
60975;SDS011;46849;48.154;17.042;2022-10-26T12:22:57;20.92;;;11.73;;
60975;SDS011;46849;48.154;17.042;2022-10-26T12:25:42;27.63;;;13.00;;
60975;SDS011;46849;48.154;17.042;2022-10-26T12:37:27;22.13;;;11.55;;
60975;SDS011;46849;48.154;17.042;2022-10-26T12:48:56;24.95;;;12.57;;
60975;SDS011;46849;48.154;17.042;2022-10-26T12:51:42;22.25;;;10.60;;
60975;SDS011;46849;48.154;17.042;2022-10-26T12:54:33;22.15;;;9.88;;
60975;SDS011;46849;48.154;17.042;2022-10-26T12:57:27;23.33;;;10.55;;
60975;SDS011;46849;48.154;17.042;2022-10-26T13:00:24;21.42;;;11.27;;
60975;SDS011;46849;48.154;17.042;2022-10-26T13:03:19;24.25;;;11.35;;
60975;SDS011;46849;48.154;17.042;2022-10-26T13:06:15;23.27;;;11.18;;
60975;SDS011;46849;48.154;17.042;2022-10-26T13:09:49;24.23;;;12.00;;
60975;SDS011;46849;48.154;17.042;2022-10-26T13:12:14;20.27;;;11.98;;
60975;SDS011;46849;48.154;17.042;2022-10-26T13:15:20;26.35;;;12.05;;
60975;SDS011;46849;48.154;17.042;2022-10-26T13:21:09;23.17;;;10.95;;
60975;SDS011;46849;48.154;17.042;2022-10-26T13:23:57;29.63;;;13.98;;
60975;SDS011;46849;48.154;17.042;2022-10-26T13:32:53;26.20;;;14.82;;
60975;SDS011;46849;48.154;17.042;2022-10-26T13:35:40;33.67;;;17.15;;
60975;SDS011;46849;48.154;17.042;2022-10-26T13:38:28;36.00;;;17.48;;
60975;SDS011;46849;48.154;17.042;2022-10-26T13:41:18;32.13;;;15.75;;
60975;SDS011;46849;48.154;17.042;2022-10-26T13:44:21;28.85;;;14.02;;
60975;SDS011;46849;48.154;17.042;2022-10-26T13:47:09;30.58;;;15.13;;
60975;SDS011;46849;48.154;17.042;2022-10-26T13:50:02;29.90;;;15.35;;
60975;SDS011;46849;48.154;17.042;2022-10-26T13:52:51;28.83;;;14.82;;
60975;SDS011;46849;48.154;17.042;2022-10-26T13:55:45;27.90;;;13.70;;
60975;SDS011;46849;48.154;17.042;2022-10-26T13:58:40;28.77;;;14.02;;
60975;SDS011;46849;48.154;17.042;2022-10-26T14:01:47;31.63;;;15.65;;
60975;SDS011;46849;48.154;17.042;2022-10-26T14:04:59;30.15;;;14.38;;
60975;SDS011;46849;48.154;17.042;2022-10-26T14:07:52;31.10;;;14.88;;
60975;SDS011;46849;48.154;17.042;2022-10-26T14:10:40;30.35;;;15.30;;
60975;SDS011;46849;48.154;17.042;2022-10-26T14:13:28;39.30;;;18.17;;
60975;SDS011;46849;48.154;17.042;2022-10-26T14:16:15;34.88;;;16.20;;
60975;SDS011;46849;48.154;17.042;2022-10-26T14:19:04;40.90;;;16.85;;
60975;SDS011;46849;48.154;17.042;2022-10-26T14:21:49;37.35;;;16.45;;
60975;SDS011;46849;48.154;17.042;2022-10-26T14:24:35;27.95;;;13.65;;
60975;SDS011;46849;48.154;17.042;2022-10-26T14:27:25;33.15;;;16.60;;
60975;SDS011;46849;48.154;17.042;2022-10-26T14:30:22;37.25;;;17.63;;
60975;SDS011;46849;48.154;17.042;2022-10-26T14:33:17;40.08;;;17.70;;
60975;SDS011;46849;48.154;17.042;2022-10-26T14:36:04;36.83;;;17.95;;
60975;SDS011;46849;48.154;17.042;2022-10-26T14:38:51;42.33;;;17.58;;
60975;SDS011;46849;48.154;17.042;2022-10-26T14:44:26;33.60;;;17.05;;
60975;SDS011;46849;48.154;17.042;2022-10-26T14:47:12;32.83;;;16.42;;
60975;SDS011;46849;48.154;17.042;2022-10-26T14:50:16;39.00;;;17.48;;
60975;SDS011;46849;48.154;17.042;2022-10-26T14:53:03;39.38;;;18.88;;
60975;SDS011;46849;48.154;17.042;2022-10-26T14:55:58;43.65;;;18.20;;
60975;SDS011;46849;48.154;17.042;2022-10-26T14:58:43;38.20;;;18.80;;
60975;SDS011;46849;48.154;17.042;2022-10-26T15:01:28;42.15;;;18.15;;
60975;SDS011;46849;48.154;17.042;2022-10-26T15:04:31;43.20;;;19.20;;
60975;SDS011;46849;48.154;17.042;2022-10-26T15:07:20;45.92;;;18.80;;
60975;SDS011;46849;48.154;17.042;2022-10-26T15:10:04;53.28;;;22.83;;
60975;SDS011;46849;48.154;17.042;2022-10-26T15:12:50;48.55;;;21.00;;
60975;SDS011;46849;48.154;17.042;2022-10-26T15:15:35;42.70;;;19.60;;
60975;SDS011;46849;48.154;17.042;2022-10-26T15:18:22;52.20;;;20.45;;
60975;SDS011;46849;48.154;17.042;2022-10-26T15:24:40;48.50;;;18.30;;
60975;SDS011;46849;48.154;17.042;2022-10-26T15:27:21;48.58;;;19.73;;
60975;SDS011;46849;48.154;17.042;2022-10-26T15:30:10;43.08;;;20.63;;
60975;SDS011;46849;48.154;17.042;2022-10-26T15:33:09;44.47;;;17.95;;
60975;SDS011;46849;48.154;17.042;2022-10-26T15:38:52;39.53;;;17.58;;
60975;SDS011;46849;48.154;17.042;2022-10-26T15:41:43;44.45;;;21.80;;
60975;SDS011;46849;48.154;17.042;2022-10-26T15:44:29;40.28;;;18.08;;
60975;SDS011;46849;48.154;17.042;2022-10-26T15:47:16;47.65;;;20.00;;
60975;SDS011;46849;48.154;17.042;2022-10-26T15:50:02;43.13;;;17.83;;
60975;SDS011;46849;48.154;17.042;2022-10-26T15:52:47;42.17;;;20.55;;
60975;SDS011;46849;48.154;17.042;2022-10-26T15:55:32;31.27;;;12.75;;
60975;SDS011;46849;48.154;17.042;2022-10-26T15:58:17;47.53;;;18.48;;
60975;SDS011;46849;48.154;17.042;2022-10-26T16:01:01;43.83;;;18.27;;
60975;SDS011;46849;48.154;17.042;2022-10-26T16:03:47;37.83;;;16.52;;
60975;SDS011;46849;48.154;17.042;2022-10-26T16:06:37;26.40;;;13.32;;
60975;SDS011;46849;48.154;17.042;2022-10-26T16:09:24;27.48;;;13.65;;
60975;SDS011;46849;48.154;17.042;2022-10-26T16:12:11;48.45;;;19.98;;
60975;SDS011;46849;48.154;17.042;2022-10-26T16:14:57;46.13;;;19.95;;
60975;SDS011;46849;48.154;17.042;2022-10-26T16:17:44;43.20;;;19.67;;
60975;SDS011;46849;48.154;17.042;2022-10-26T16:20:29;43.55;;;18.73;;
60975;SDS011;46849;48.154;17.042;2022-10-26T16:23:15;49.72;;;22.20;;
60975;SDS011;46849;48.154;17.042;2022-10-26T16:26:02;51.72;;;21.50;;
60975;SDS011;46849;48.154;17.042;2022-10-26T16:28:48;53.42;;;21.77;;
60975;SDS011;46849;48.154;17.042;2022-10-26T16:31:33;49.67;;;20.38;;
60975;SDS011;46849;48.154;17.042;2022-10-26T16:34:18;47.00;;;20.50;;
60975;SDS011;46849;48.154;17.042;2022-10-26T16:37:02;49.88;;;21.33;;
60975;SDS011;46849;48.154;17.042;2022-10-26T16:39:47;38.42;;;18.08;;
60975;SDS011;46849;48.154;17.042;2022-10-26T16:42:32;54.08;;;22.77;;
60975;SDS011;46849;48.154;17.042;2022-10-26T16:45:17;35.60;;;16.42;;
60975;SDS011;46849;48.154;17.042;2022-10-26T16:48:01;45.83;;;19.50;;
60975;SDS011;46849;48.154;17.042;2022-10-26T16:50:49;39.33;;;19.20;;
60975;SDS011;46849;48.154;17.042;2022-10-26T16:53:34;45.30;;;19.58;;
60975;SDS011;46849;48.154;17.042;2022-10-26T16:56:21;41.03;;;18.92;;
60975;SDS011;46849;48.154;17.042;2022-10-26T16:59:10;36.93;;;17.67;;
60975;SDS011;46849;48.154;17.042;2022-10-26T17:01:58;34.83;;;16.85;;
60975;SDS011;46849;48.154;17.042;2022-10-26T17:04:44;36.25;;;17.08;;
60975;SDS011;46849;48.154;17.042;2022-10-26T17:07:32;40.70;;;19.42;;
60975;SDS011;46849;48.154;17.042;2022-10-26T17:10:18;38.97;;;19.67;;
60975;SDS011;46849;48.154;17.042;2022-10-26T17:13:03;32.08;;;15.48;;
60975;SDS011;46849;48.154;17.042;2022-10-26T17:15:48;38.28;;;16.60;;
60975;SDS011;46849;48.154;17.042;2022-10-26T17:18:34;33.08;;;16.23;;
60975;SDS011;46849;48.154;17.042;2022-10-26T17:21:27;34.65;;;16.70;;
60975;SDS011;46849;48.154;17.042;2022-10-26T17:24:18;43.05;;;17.83;;
60975;SDS011;46849;48.154;17.042;2022-10-26T17:27:03;29.10;;;12.98;;
60975;SDS011;46849;48.154;17.042;2022-10-26T17:29:48;35.40;;;15.88;;
60975;SDS011;46849;48.154;17.042;2022-10-26T17:32:32;36.00;;;16.50;;
60975;SDS011;46849;48.154;17.042;2022-10-26T17:35:17;30.30;;;15.40;;
60975;SDS011;46849;48.154;17.042;2022-10-26T17:38:03;34.65;;;15.48;;
60975;SDS011;46849;48.154;17.042;2022-10-26T17:40:47;30.67;;;14.75;;
60975;SDS011;46849;48.154;17.042;2022-10-26T17:43:33;37.22;;;15.23;;
60975;SDS011;46849;48.154;17.042;2022-10-26T17:46:20;34.42;;;15.52;;
60975;SDS011;46849;48.154;17.042;2022-10-26T17:49:09;29.13;;;14.20;;
60975;SDS011;46849;48.154;17.042;2022-10-26T17:51:54;38.95;;;17.27;;
60975;SDS011;46849;48.154;17.042;2022-10-26T17:54:38;27.10;;;13.73;;
60975;SDS011;46849;48.154;17.042;2022-10-26T17:57:23;39.17;;;16.98;;
60975;SDS011;46849;48.154;17.042;2022-10-26T18:00:08;38.03;;;16.75;;
60975;SDS011;46849;48.154;17.042;2022-10-26T18:02:59;27.08;;;12.38;;
60975;SDS011;46849;48.154;17.042;2022-10-26T18:05:51;38.17;;;15.88;;
60975;SDS011;46849;48.154;17.042;2022-10-26T18:08:36;36.85;;;16.67;;
60975;SDS011;46849;48.154;17.042;2022-10-26T18:11:22;42.00;;;17.65;;
60975;SDS011;46849;48.154;17.042;2022-10-26T18:14:09;38.83;;;17.50;;
60975;SDS011;46849;48.154;17.042;2022-10-26T18:16:54;42.80;;;18.55;;
60975;SDS011;46849;48.154;17.042;2022-10-26T18:19:38;50.50;;;22.08;;
60975;SDS011;46849;48.154;17.042;2022-10-26T18:22:23;41.80;;;18.83;;
60975;SDS011;46849;48.154;17.042;2022-10-26T18:25:08;40.80;;;19.20;;
60975;SDS011;46849;48.154;17.042;2022-10-26T18:27:53;42.47;;;18.70;;
60975;SDS011;46849;48.154;17.042;2022-10-26T18:30:38;39.58;;;18.85;;
60975;SDS011;46849;48.154;17.042;2022-10-26T18:33:25;30.75;;;15.15;;
60975;SDS011;46849;48.154;17.042;2022-10-26T18:36:13;34.38;;;17.05;;
60975;SDS011;46849;48.154;17.042;2022-10-26T18:38:59;34.70;;;17.05;;
60975;SDS011;46849;48.154;17.042;2022-10-26T18:41:44;31.35;;;15.98;;
60975;SDS011;46849;48.154;17.042;2022-10-26T18:44:29;32.97;;;16.48;;
60975;SDS011;46849;48.154;17.042;2022-10-26T18:47:13;36.90;;;19.35;;
60975;SDS011;46849;48.154;17.042;2022-10-26T18:50:03;34.90;;;16.17;;
60975;SDS011;46849;48.154;17.042;2022-10-26T18:52:54;25.85;;;14.43;;
60975;SDS011;46849;48.154;17.042;2022-10-26T18:55:39;34.10;;;16.67;;
60975;SDS011;46849;48.154;17.042;2022-10-26T18:58:28;33.47;;;16.63;;
60975;SDS011;46849;48.154;17.042;2022-10-26T19:01:15;31.17;;;14.93;;
60975;SDS011;46849;48.154;17.042;2022-10-26T19:04:01;39.72;;;16.48;;
60975;SDS011;46849;48.154;17.042;2022-10-26T19:06:47;27.05;;;14.25;;
60975;SDS011;46849;48.154;17.042;2022-10-26T19:09:33;31.65;;;16.73;;
60975;SDS011;46849;48.154;17.042;2022-10-26T19:12:17;25.52;;;13.15;;
60975;SDS011;46849;48.154;17.042;2022-10-26T19:15:01;28.05;;;13.77;;
60975;SDS011;46849;48.154;17.042;2022-10-26T19:17:47;25.83;;;13.75;;
60975;SDS011;46849;48.154;17.042;2022-10-26T19:20:31;28.00;;;14.38;;
60975;SDS011;46849;48.154;17.042;2022-10-26T19:23:16;28.73;;;14.43;;
60975;SDS011;46849;48.154;17.042;2022-10-26T19:26:04;32.75;;;15.82;;
60975;SDS011;46849;48.154;17.042;2022-10-26T19:28:58;27.92;;;14.35;;
60975;SDS011;46849;48.154;17.042;2022-10-26T19:31:45;23.08;;;11.63;;
60975;SDS011;46849;48.154;17.042;2022-10-26T19:34:30;22.27;;;12.30;;
60975;SDS011;46849;48.154;17.042;2022-10-26T19:37:15;25.30;;;13.68;;
60975;SDS011;46849;48.154;17.042;2022-10-26T19:40:00;22.80;;;12.65;;
60975;SDS011;46849;48.154;17.042;2022-10-26T19:42:45;20.83;;;10.88;;
60975;SDS011;46849;48.154;17.042;2022-10-26T19:45:29;26.55;;;14.30;;
60975;SDS011;46849;48.154;17.042;2022-10-26T19:48:14;24.83;;;13.35;;
60975;SDS011;46849;48.154;17.042;2022-10-26T19:50:58;24.85;;;14.60;;
60975;SDS011;46849;48.154;17.042;2022-10-26T19:53:43;30.45;;;14.63;;
60975;SDS011;46849;48.154;17.042;2022-10-26T19:56:27;27.52;;;14.07;;
60975;SDS011;46849;48.154;17.042;2022-10-26T19:59:12;36.25;;;18.88;;
60975;SDS011;46849;48.154;17.042;2022-10-26T20:01:57;39.38;;;19.08;;
60975;SDS011;46849;48.154;17.042;2022-10-26T20:04:43;29.60;;;14.82;;
60975;SDS011;46849;48.154;17.042;2022-10-26T20:07:28;24.83;;;13.40;;
60975;SDS011;46849;48.154;17.042;2022-10-26T20:10:13;20.30;;;11.88;;
60975;SDS011;46849;48.154;17.042;2022-10-26T20:12:57;19.48;;;11.35;;
60975;SDS011;46849;48.154;17.042;2022-10-26T20:15:42;23.50;;;11.82;;
60975;SDS011;46849;48.154;17.042;2022-10-26T20:18:27;21.42;;;11.05;;
60975;SDS011;46849;48.154;17.042;2022-10-26T20:21:11;21.73;;;12.18;;
60975;SDS011;46849;48.154;17.042;2022-10-26T20:23:59;18.40;;;10.20;;
60975;SDS011;46849;48.154;17.042;2022-10-26T20:26:44;19.60;;;10.93;;
60975;SDS011;46849;48.154;17.042;2022-10-26T20:29:28;22.40;;;11.73;;
60975;SDS011;46849;48.154;17.042;2022-10-26T20:32:13;19.00;;;11.13;;
60975;SDS011;46849;48.154;17.042;2022-10-26T20:34:58;20.85;;;11.20;;
60975;SDS011;46849;48.154;17.042;2022-10-26T20:37:43;18.10;;;10.38;;
60975;SDS011;46849;48.154;17.042;2022-10-26T20:40:28;18.35;;;10.73;;
60975;SDS011;46849;48.154;17.042;2022-10-26T20:43:16;18.65;;;11.00;;
60975;SDS011;46849;48.154;17.042;2022-10-26T20:46:02;16.13;;;9.38;;
60975;SDS011;46849;48.154;17.042;2022-10-26T20:48:46;19.20;;;10.68;;
60975;SDS011;46849;48.154;17.042;2022-10-26T20:51:48;21.58;;;11.05;;
60975;SDS011;46849;48.154;17.042;2022-10-26T20:57:36;17.42;;;9.48;;
60975;SDS011;46849;48.154;17.042;2022-10-26T21:00:22;15.90;;;8.60;;
60975;SDS011;46849;48.154;17.042;2022-10-26T21:03:07;15.52;;;9.45;;
60975;SDS011;46849;48.154;17.042;2022-10-26T21:05:52;12.80;;;8.43;;
60975;SDS011;46849;48.154;17.042;2022-10-26T21:08:37;20.45;;;11.27;;
60975;SDS011;46849;48.154;17.042;2022-10-26T21:11:23;13.18;;;7.82;;
60975;SDS011;46849;48.154;17.042;2022-10-26T21:14:09;17.52;;;9.88;;
60975;SDS011;46849;48.154;17.042;2022-10-26T21:16:55;16.60;;;9.20;;
60975;SDS011;46849;48.154;17.042;2022-10-26T21:19:40;13.68;;;8.98;;
60975;SDS011;46849;48.154;17.042;2022-10-26T21:22:25;15.77;;;9.30;;
60975;SDS011;46849;48.154;17.042;2022-10-26T21:25:09;16.15;;;8.75;;
60975;SDS011;46849;48.154;17.042;2022-10-26T21:27:57;15.13;;;8.25;;
60975;SDS011;46849;48.154;17.042;2022-10-26T21:30:42;15.60;;;7.88;;
60975;SDS011;46849;48.154;17.042;2022-10-26T21:33:26;13.65;;;8.80;;
60975;SDS011;46849;48.154;17.042;2022-10-26T21:36:15;15.02;;;9.32;;
60975;SDS011;46849;48.154;17.042;2022-10-26T21:39:00;13.95;;;8.38;;
60975;SDS011;46849;48.154;17.042;2022-10-26T21:41:45;12.60;;;8.07;;
60975;SDS011;46849;48.154;17.042;2022-10-26T21:44:29;16.48;;;8.88;;
60975;SDS011;46849;48.154;17.042;2022-10-26T21:47:14;10.52;;;6.72;;
60975;SDS011;46849;48.154;17.042;2022-10-26T21:49:59;12.20;;;7.72;;
60975;SDS011;46849;48.154;17.042;2022-10-26T21:52:43;13.07;;;7.53;;
60975;SDS011;46849;48.154;17.042;2022-10-26T21:55:28;12.57;;;6.80;;
60975;SDS011;46849;48.154;17.042;2022-10-26T21:58:14;12.57;;;6.82;;
60975;SDS011;46849;48.154;17.042;2022-10-26T22:01:16;11.52;;;7.30;;
60975;SDS011;46849;48.154;17.042;2022-10-26T22:04:02;9.38;;;5.60;;